sensor_id;sensor_type;location;lat;lon;timestamp;pressure;altitude;pressure_sealevel;temperature;humidity
13312;BME280;34033;48.672;9.376;2022-09-09T00:01:59;98203.28;;;16.66;72.35
13312;BME280;34033;48.672;9.376;2022-09-09T00:04:34;98213.06;;;16.61;72.35
13312;BME280;34033;48.672;9.376;2022-09-09T00:10:09;98202.09;;;16.83;72.01
13312;BME280;34033;48.672;9.376;2022-09-09T00:15:14;98192.06;;;16.98;70.92
13312;BME280;34033;48.672;9.376;2022-09-09T00:23:05;98200.72;;;17.07;70.43
13312;BME280;34033;48.672;9.376;2022-09-09T00:28:27;98183.69;;;17.11;69.88
13312;BME280;34033;48.672;9.376;2022-09-09T00:30:56;98179.47;;;17.19;70.03
13312;BME280;34033;48.672;9.376;2022-09-09T00:33:26;98172.13;;;17.22;69.25
13312;BME280;34033;48.672;9.376;2022-09-09T00:35:54;98174.88;;;17.09;69.81
13312;BME280;34033;48.672;9.376;2022-09-09T00:38:36;98175.84;;;17.02;69.60
13312;BME280;34033;48.672;9.376;2022-09-09T00:41:08;98176.28;;;17.01;70.47
13312;BME280;34033;48.672;9.376;2022-09-09T00:43:38;98183.09;;;17.03;70.32
13312;BME280;34033;48.672;9.376;2022-09-09T00:54:20;98185.88;;;16.87;70.74
13312;BME280;34033;48.672;9.376;2022-09-09T01:04:47;98198.03;;;16.28;73.66
13312;BME280;34033;48.672;9.376;2022-09-09T01:07:17;98200.19;;;16.21;74.26
13312;BME280;34033;48.672;9.376;2022-09-09T01:09:59;98196.78;;;16.30;74.09
13312;BME280;34033;48.672;9.376;2022-09-09T01:14:58;98193.94;;;16.49;73.72
13312;BME280;34033;48.672;9.376;2022-09-09T01:17:48;98198.66;;;16.56;73.18
13312;BME280;34033;48.672;9.376;2022-09-09T01:20:23;98192.94;;;16.59;73.46
13312;BME280;34033;48.672;9.376;2022-09-09T01:23:05;98190.97;;;16.56;73.17
13312;BME280;34033;48.672;9.376;2022-09-09T01:28:28;98189.91;;;16.50;73.44
13312;BME280;34033;48.672;9.376;2022-09-09T01:30:55;98191.34;;;16.39;73.96
13312;BME280;34033;48.672;9.376;2022-09-09T01:33:21;98193.59;;;16.27;74.29
13312;BME280;34033;48.672;9.376;2022-09-09T01:38:29;98193.31;;;16.22;74.63
13312;BME280;34033;48.672;9.376;2022-09-09T01:40:56;98203.97;;;16.14;75.48
13312;BME280;34033;48.672;9.376;2022-09-09T01:43:24;98194.91;;;16.23;74.76
13312;BME280;34033;48.672;9.376;2022-09-09T01:45:53;98209.00;;;16.23;74.48
13312;BME280;34033;48.672;9.376;2022-09-09T01:48:21;98205.09;;;16.17;75.01
13312;BME280;34033;48.672;9.376;2022-09-09T01:50:47;98202.94;;;16.05;75.31
13312;BME280;34033;48.672;9.376;2022-09-09T01:53:14;98206.25;;;16.00;75.80
13312;BME280;34033;48.672;9.376;2022-09-09T01:55:46;98200.41;;;16.10;75.57
13312;BME280;34033;48.672;9.376;2022-09-09T01:58:30;98202.06;;;16.27;74.83
13312;BME280;34033;48.672;9.376;2022-09-09T02:03:32;98202.34;;;16.53;73.58
13312;BME280;34033;48.672;9.376;2022-09-09T02:06:21;98205.88;;;16.57;72.86
13312;BME280;34033;48.672;9.376;2022-09-09T02:08:50;98208.28;;;16.58;72.98
13312;BME280;34033;48.672;9.376;2022-09-09T02:11:16;98211.09;;;16.58;72.73
13312;BME280;34033;48.672;9.376;2022-09-09T02:13:44;98202.63;;;16.58;72.79
13312;BME280;34033;48.672;9.376;2022-09-09T02:16:23;98207.06;;;16.59;72.44
13312;BME280;34033;48.672;9.376;2022-09-09T02:21:18;98211.97;;;16.55;72.57
13312;BME280;34033;48.672;9.376;2022-09-09T02:23:47;98204.16;;;16.43;72.74
13312;BME280;34033;48.672;9.376;2022-09-09T02:26:14;98204.59;;;16.22;73.98
13312;BME280;34033;48.672;9.376;2022-09-09T02:28:46;98210.41;;;16.15;74.08
13312;BME280;34033;48.672;9.376;2022-09-09T02:31:16;98202.78;;;16.12;74.35
13312;BME280;34033;48.672;9.376;2022-09-09T02:33:45;98193.75;;;16.01;74.89
13312;BME280;34033;48.672;9.376;2022-09-09T02:36:14;98202.78;;;15.92;75.35
13312;BME280;34033;48.672;9.376;2022-09-09T02:38:45;98211.44;;;15.81;76.04
13312;BME280;34033;48.672;9.376;2022-09-09T02:41:17;98202.25;;;15.77;76.62
13312;BME280;34033;48.672;9.376;2022-09-09T02:43:42;98199.28;;;15.84;76.71
13312;BME280;34033;48.672;9.376;2022-09-09T02:48:55;98196.84;;;15.87;76.39
13312;BME280;34033;48.672;9.376;2022-09-09T02:51:35;98200.25;;;15.98;75.73
13312;BME280;34033;48.672;9.376;2022-09-09T02:54:12;98209.81;;;16.04;75.86
13312;BME280;34033;48.672;9.376;2022-09-09T02:56:46;98219.06;;;16.04;75.48
13312;BME280;34033;48.672;9.376;2022-09-09T02:59:15;98216.59;;;16.06;74.85
13312;BME280;34033;48.672;9.376;2022-09-09T03:01:41;98212.13;;;16.09;74.44
13312;BME280;34033;48.672;9.376;2022-09-09T03:04:06;98209.66;;;16.11;73.95
13312;BME280;34033;48.672;9.376;2022-09-09T03:06:31;98208.44;;;16.12;74.03
13312;BME280;34033;48.672;9.376;2022-09-09T03:08:57;98201.16;;;16.14;73.88
13312;BME280;34033;48.672;9.376;2022-09-09T03:11:24;98211.97;;;16.16;73.77
13312;BME280;34033;48.672;9.376;2022-09-09T03:13:49;98205.97;;;16.53;78.19
13312;BME280;34033;48.672;9.376;2022-09-09T03:16:14;98204.28;;;17.60;73.70
13312;BME280;34033;48.672;9.376;2022-09-09T03:18:40;98208.03;;;18.44;69.45
13312;BME280;34033;48.672;9.376;2022-09-09T03:21:05;98208.63;;;19.05;66.09
13312;BME280;34033;48.672;9.376;2022-09-09T03:23:32;98207.03;;;19.55;63.62
13312;BME280;34033;48.672;9.376;2022-09-09T03:25:57;98206.25;;;19.89;61.58
13312;BME280;34033;48.672;9.376;2022-09-09T03:28:23;98207.09;;;20.11;59.99
13312;BME280;34033;48.672;9.376;2022-09-09T03:30:58;98211.66;;;20.30;59.11
13312;BME280;34033;48.672;9.376;2022-09-09T03:33:24;98210.19;;;20.38;58.44
13312;BME280;34033;48.672;9.376;2022-09-09T03:35:49;98215.47;;;20.49;57.80
13312;BME280;34033;48.672;9.376;2022-09-09T03:38:14;98207.72;;;20.50;57.52
13312;BME280;34033;48.672;9.376;2022-09-09T03:40:48;98211.88;;;20.58;57.14
13312;BME280;34033;48.672;9.376;2022-09-09T03:43:14;98209.31;;;20.51;56.94
13312;BME280;34033;48.672;9.376;2022-09-09T03:45:45;98206.94;;;20.49;56.72
13312;BME280;34033;48.672;9.376;2022-09-09T03:48:12;98207.00;;;20.58;57.33
13312;BME280;34033;48.672;9.376;2022-09-09T03:50:37;98219.69;;;20.66;57.29
13312;BME280;34033;48.672;9.376;2022-09-09T03:53:02;98210.56;;;20.71;57.12
13312;BME280;34033;48.672;9.376;2022-09-09T03:55:28;98217.53;;;20.79;56.40
13312;BME280;34033;48.672;9.376;2022-09-09T03:57:53;98213.59;;;20.77;55.98
13312;BME280;34033;48.672;9.376;2022-09-09T04:00:19;98206.78;;;20.74;56.06
13312;BME280;34033;48.672;9.376;2022-09-09T04:02:44;98203.69;;;20.38;56.21
13312;BME280;34033;48.672;9.376;2022-09-09T04:05:10;98205.16;;;19.74;57.86
13312;BME280;34033;48.672;9.376;2022-09-09T04:07:36;98205.66;;;19.09;59.94
13312;BME280;34033;48.672;9.376;2022-09-09T04:10:01;98210.31;;;18.49;61.87
13312;BME280;34033;48.672;9.376;2022-09-09T04:12:27;98207.81;;;18.09;63.38
13312;BME280;34033;48.672;9.376;2022-09-09T04:14:52;98211.16;;;17.75;64.70
13312;BME280;34033;48.672;9.376;2022-09-09T04:17:17;98206.50;;;17.36;66.28
13312;BME280;34033;48.672;9.376;2022-09-09T04:19:43;98202.41;;;17.05;67.51
13312;BME280;34033;48.672;9.376;2022-09-09T04:22:08;98195.94;;;16.88;68.35
13312;BME280;34033;48.672;9.376;2022-09-09T04:24:34;98205.59;;;16.71;69.42
13312;BME280;34033;48.672;9.376;2022-09-09T04:27:00;98196.06;;;16.65;69.53
13312;BME280;34033;48.672;9.376;2022-09-09T04:29:25;98199.31;;;16.44;70.51
13312;BME280;34033;48.672;9.376;2022-09-09T04:31:51;98194.78;;;16.30;70.97
13312;BME280;34033;48.672;9.376;2022-09-09T04:34:16;98195.94;;;16.13;72.28
13312;BME280;34033;48.672;9.376;2022-09-09T04:36:41;98190.50;;;16.22;71.83
13312;BME280;34033;48.672;9.376;2022-09-09T04:39:07;98201.06;;;16.18;72.57
13312;BME280;34033;48.672;9.376;2022-09-09T04:41:32;98203.50;;;16.16;72.69
13312;BME280;34033;48.672;9.376;2022-09-09T04:43:58;98205.69;;;16.08;72.80
13312;BME280;34033;48.672;9.376;2022-09-09T04:46:24;98209.34;;;16.05;73.16
13312;BME280;34033;48.672;9.376;2022-09-09T04:48:49;98214.06;;;16.12;73.19
13312;BME280;34033;48.672;9.376;2022-09-09T04:51:15;98204.03;;;16.31;72.96
13312;BME280;34033;48.672;9.376;2022-09-09T04:53:41;98224.13;;;16.33;72.44
13312;BME280;34033;48.672;9.376;2022-09-09T04:56:09;98218.94;;;16.31;72.35
13312;BME280;34033;48.672;9.376;2022-09-09T04:58:38;98225.44;;;16.28;72.66
13312;BME280;34033;48.672;9.376;2022-09-09T05:03:29;98219.72;;;16.12;73.47
13312;BME280;34033;48.672;9.376;2022-09-09T05:06:02;98228.25;;;16.28;73.28
13312;BME280;34033;48.672;9.376;2022-09-09T05:08:29;98219.13;;;16.40;72.84
13312;BME280;34033;48.672;9.376;2022-09-09T05:10:54;98229.03;;;16.28;72.84
13312;BME280;34033;48.672;9.376;2022-09-09T05:13:20;98223.91;;;16.23;72.87
13312;BME280;34033;48.672;9.376;2022-09-09T05:15:52;98221.91;;;16.24;73.29
13312;BME280;34033;48.672;9.376;2022-09-09T05:18:18;98216.88;;;16.12;73.58
13312;BME280;34033;48.672;9.376;2022-09-09T05:20:43;98217.81;;;16.05;74.06
13312;BME280;34033;48.672;9.376;2022-09-09T05:23:08;98226.34;;;16.02;73.83
13312;BME280;34033;48.672;9.376;2022-09-09T05:25:36;98230.41;;;16.01;74.24
13312;BME280;34033;48.672;9.376;2022-09-09T05:28:01;98227.25;;;15.99;74.41
13312;BME280;34033;48.672;9.376;2022-09-09T05:30:27;98233.59;;;16.03;74.49
13312;BME280;34033;48.672;9.376;2022-09-09T05:32:55;98235.19;;;16.04;74.08
13312;BME280;34033;48.672;9.376;2022-09-09T05:35:21;98226.72;;;16.04;74.20
13312;BME280;34033;48.672;9.376;2022-09-09T05:37:47;98231.13;;;16.05;74.19
13312;BME280;34033;48.672;9.376;2022-09-09T05:40:13;98229.56;;;16.04;74.62
13312;BME280;34033;48.672;9.376;2022-09-09T05:42:38;98235.50;;;16.09;74.06
13312;BME280;34033;48.672;9.376;2022-09-09T05:45:05;98244.72;;;16.10;74.07
13312;BME280;34033;48.672;9.376;2022-09-09T05:47:33;98240.63;;;16.14;74.25
13312;BME280;34033;48.672;9.376;2022-09-09T05:49:58;98238.81;;;16.24;73.72
13312;BME280;34033;48.672;9.376;2022-09-09T05:52:23;98247.16;;;16.31;73.74
13312;BME280;34033;48.672;9.376;2022-09-09T05:54:50;98245.53;;;16.30;73.64
13312;BME280;34033;48.672;9.376;2022-09-09T05:57:16;98257.97;;;16.33;73.67
13312;BME280;34033;48.672;9.376;2022-09-09T05:59:42;98253.78;;;16.41;73.36
13312;BME280;34033;48.672;9.376;2022-09-09T06:02:08;98255.03;;;16.59;72.69
13312;BME280;34033;48.672;9.376;2022-09-09T06:04:34;98252.34;;;16.72;71.86
13312;BME280;34033;48.672;9.376;2022-09-09T06:07:00;98246.41;;;16.86;71.39
13312;BME280;34033;48.672;9.376;2022-09-09T06:09:25;98243.59;;;16.86;71.61
13312;BME280;34033;48.672;9.376;2022-09-09T06:11:50;98246.94;;;16.81;71.50
13312;BME280;34033;48.672;9.376;2022-09-09T06:14:15;98250.97;;;16.80;71.74
13312;BME280;34033;48.672;9.376;2022-09-09T06:16:43;98244.88;;;16.82;72.02
13312;BME280;34033;48.672;9.376;2022-09-09T06:19:09;98246.47;;;16.83;72.23
13312;BME280;34033;48.672;9.376;2022-09-09T06:21:36;98247.97;;;16.87;72.18
13312;BME280;34033;48.672;9.376;2022-09-09T06:24:02;98241.38;;;16.94;71.99
13312;BME280;34033;48.672;9.376;2022-09-09T06:26:33;98238.69;;;17.06;71.79
13312;BME280;34033;48.672;9.376;2022-09-09T06:28:59;98240.34;;;17.20;70.86
13312;BME280;34033;48.672;9.376;2022-09-09T06:31:27;98234.28;;;17.22;70.75
13312;BME280;34033;48.672;9.376;2022-09-09T06:33:56;98233.84;;;17.23;71.19
13312;BME280;34033;48.672;9.376;2022-09-09T06:36:26;98243.56;;;17.38;70.83
13312;BME280;34033;48.672;9.376;2022-09-09T06:38:52;98246.16;;;17.65;69.21
13312;BME280;34033;48.672;9.376;2022-09-09T06:41:20;98241.00;;;17.76;68.66
13312;BME280;34033;48.672;9.376;2022-09-09T06:43:46;98240.41;;;17.85;68.83
13312;BME280;34033;48.672;9.376;2022-09-09T06:46:17;98245.25;;;17.84;68.56
13312;BME280;34033;48.672;9.376;2022-09-09T06:48:44;98243.13;;;17.88;68.12
13312;BME280;34033;48.672;9.376;2022-09-09T06:51:18;98245.09;;;17.91;68.69
13312;BME280;34033;48.672;9.376;2022-09-09T06:53:45;98240.44;;;17.98;68.82
13312;BME280;34033;48.672;9.376;2022-09-09T06:58:42;98243.53;;;18.03;68.41
13312;BME280;34033;48.672;9.376;2022-09-09T07:01:16;98249.97;;;18.04;67.53
13312;BME280;34033;48.672;9.376;2022-09-09T07:03:44;98251.94;;;18.07;67.33
13312;BME280;34033;48.672;9.376;2022-09-09T07:06:15;98252.53;;;18.14;67.39
13312;BME280;34033;48.672;9.376;2022-09-09T07:08:42;98249.25;;;18.16;67.53
13312;BME280;34033;48.672;9.376;2022-09-09T07:11:08;98248.72;;;18.21;68.20
13312;BME280;34033;48.672;9.376;2022-09-09T07:13:34;98251.41;;;18.41;67.84
13312;BME280;34033;48.672;9.376;2022-09-09T07:16:04;98253.78;;;18.71;66.45
13312;BME280;34033;48.672;9.376;2022-09-09T07:18:30;98247.59;;;18.89;65.84
13312;BME280;34033;48.672;9.376;2022-09-09T07:20:56;98241.69;;;19.08;65.15
13312;BME280;34033;48.672;9.376;2022-09-09T07:23:22;98242.50;;;19.22;64.91
13312;BME280;34033;48.672;9.376;2022-09-09T07:25:47;98238.19;;;19.30;65.30
13312;BME280;34033;48.672;9.376;2022-09-09T07:28:13;98249.44;;;19.33;64.91
13312;BME280;34033;48.672;9.376;2022-09-09T07:30:39;98256.56;;;19.38;64.61
13312;BME280;34033;48.672;9.376;2022-09-09T07:33:05;98253.75;;;19.50;64.38
13312;BME280;34033;48.672;9.376;2022-09-09T07:35:31;98242.06;;;19.61;63.79
13312;BME280;34033;48.672;9.376;2022-09-09T07:37:56;98241.34;;;19.82;63.50
13312;BME280;34033;48.672;9.376;2022-09-09T07:40:24;98240.75;;;19.87;63.30
13312;BME280;34033;48.672;9.376;2022-09-09T07:42:49;98237.00;;;19.90;63.55
13312;BME280;34033;48.672;9.376;2022-09-09T07:45:15;98245.84;;;19.92;63.26
13312;BME280;34033;48.672;9.376;2022-09-09T07:47:40;98248.09;;;19.97;63.84
13312;BME280;34033;48.672;9.376;2022-09-09T07:50:08;98248.69;;;19.92;64.05
13312;BME280;34033;48.672;9.376;2022-09-09T07:52:35;98251.75;;;19.85;63.83
13312;BME280;34033;48.672;9.376;2022-09-09T07:55:00;98257.69;;;19.78;63.88
13312;BME280;34033;48.672;9.376;2022-09-09T07:57:28;98249.75;;;19.73;63.87
13312;BME280;34033;48.672;9.376;2022-09-09T07:59:55;98250.88;;;19.63;64.45
13312;BME280;34033;48.672;9.376;2022-09-09T08:02:21;98259.03;;;19.74;64.75
13312;BME280;34033;48.672;9.376;2022-09-09T08:04:48;98262.44;;;19.81;64.42
13312;BME280;34033;48.672;9.376;2022-09-09T08:07:13;98264.59;;;19.90;64.30
13312;BME280;34033;48.672;9.376;2022-09-09T08:09:38;98265.03;;;20.01;63.71
13312;BME280;34033;48.672;9.376;2022-09-09T08:12:04;98270.56;;;20.05;62.43
13312;BME280;34033;48.672;9.376;2022-09-09T08:14:31;98267.66;;;19.95;62.74
13312;BME280;34033;48.672;9.376;2022-09-09T08:16:57;98276.59;;;19.94;63.88
13312;BME280;34033;48.672;9.376;2022-09-09T08:19:22;98272.38;;;19.98;64.08
13312;BME280;34033;48.672;9.376;2022-09-09T08:21:48;98272.16;;;20.06;63.20
13312;BME280;34033;48.672;9.376;2022-09-09T08:24:14;98267.56;;;20.21;62.41
13312;BME280;34033;48.672;9.376;2022-09-09T08:26:45;98267.75;;;20.26;62.35
13312;BME280;34033;48.672;9.376;2022-09-09T08:29:12;98259.56;;;20.41;62.50
13312;BME280;34033;48.672;9.376;2022-09-09T08:34:08;98257.31;;;20.79;61.14
13312;BME280;34033;48.672;9.376;2022-09-09T08:36:36;98263.25;;;20.94;60.40
13312;BME280;34033;48.672;9.376;2022-09-09T08:39:04;98264.53;;;21.02;59.99
13312;BME280;34033;48.672;9.376;2022-09-09T08:42:04;98268.78;;;20.98;59.59
13312;BME280;34033;48.672;9.376;2022-09-09T08:58:09;98276.09;;;20.77;59.20
13312;BME280;34033;48.672;9.376;2022-09-09T09:11:40;98271.97;;;21.00;58.59
13312;BME280;34033;48.672;9.376;2022-09-09T09:14:15;98266.66;;;21.11;57.79
13312;BME280;34033;48.672;9.376;2022-09-09T09:16:53;98256.50;;;21.23;58.03
13312;BME280;34033;48.672;9.376;2022-09-09T09:19:22;98265.06;;;21.32;57.19
13312;BME280;34033;48.672;9.376;2022-09-09T09:27:35;98256.81;;;21.25;57.45
13312;BME280;34033;48.672;9.376;2022-09-09T09:30:12;98259.63;;;21.25;57.78
13312;BME280;34033;48.672;9.376;2022-09-09T09:32:49;98251.91;;;21.25;58.16
13312;BME280;34033;48.672;9.376;2022-09-09T09:35:17;98257.13;;;21.27;58.11
13312;BME280;34033;48.672;9.376;2022-09-09T09:37:42;98248.91;;;21.29;58.07
13312;BME280;34033;48.672;9.376;2022-09-09T09:40:14;98249.44;;;21.45;57.85
13312;BME280;34033;48.672;9.376;2022-09-09T09:42:55;98248.72;;;21.63;56.93
13312;BME280;34033;48.672;9.376;2022-09-09T09:45:41;98245.59;;;21.79;55.56
13312;BME280;34033;48.672;9.376;2022-09-09T09:48:11;98246.78;;;22.00;55.56
13312;BME280;34033;48.672;9.376;2022-09-09T09:50:48;98243.66;;;22.25;54.87
13312;BME280;34033;48.672;9.376;2022-09-09T09:53:26;98247.28;;;22.44;53.29
13312;BME280;34033;48.672;9.376;2022-09-09T09:55:56;98233.53;;;22.52;52.74
13312;BME280;34033;48.672;9.376;2022-09-09T09:58:23;98240.66;;;22.47;51.34
13312;BME280;34033;48.672;9.376;2022-09-09T10:00:52;98230.34;;;22.40;52.67
13312;BME280;34033;48.672;9.376;2022-09-09T10:05:51;98218.00;;;22.62;51.22
13312;BME280;34033;48.672;9.376;2022-09-09T10:08:17;98215.47;;;22.82;49.61
13312;BME280;34033;48.672;9.376;2022-09-09T10:13:21;98220.66;;;22.93;48.76
13312;BME280;34033;48.672;9.376;2022-09-09T10:18:36;98213.75;;;23.17;48.49
13312;BME280;34033;48.672;9.376;2022-09-09T10:24:07;98220.00;;;23.40;47.35
13312;BME280;34033;48.672;9.376;2022-09-09T10:26:48;98205.72;;;23.49;46.04
13312;BME280;34033;48.672;9.376;2022-09-09T10:40:02;98194.94;;;23.44;46.81
13312;BME280;34033;48.672;9.376;2022-09-09T10:42:37;98195.09;;;23.49;46.65
13312;BME280;34033;48.672;9.376;2022-09-09T10:45:18;98192.44;;;23.46;45.37
13312;BME280;34033;48.672;9.376;2022-09-09T10:48:10;98190.44;;;23.61;45.99
13312;BME280;34033;48.672;9.376;2022-09-09T10:53:20;98186.25;;;23.95;44.80
13312;BME280;34033;48.672;9.376;2022-09-09T10:55:57;98189.34;;;24.06;45.24
13312;BME280;34033;48.672;9.376;2022-09-09T10:58:35;98192.00;;;24.09;44.82
13312;BME280;34033;48.672;9.376;2022-09-09T11:01:12;98183.56;;;24.15;44.44
13312;BME280;34033;48.672;9.376;2022-09-09T11:03:41;98183.75;;;24.11;44.75
13312;BME280;34033;48.672;9.376;2022-09-09T11:06:19;98180.84;;;24.21;42.75
13312;BME280;34033;48.672;9.376;2022-09-09T11:08:47;98176.75;;;24.36;42.33
13312;BME280;34033;48.672;9.376;2022-09-09T11:11:36;98172.91;;;24.39;42.78
13312;BME280;34033;48.672;9.376;2022-09-09T11:16:51;98165.53;;;24.62;42.78
13312;BME280;34033;48.672;9.376;2022-09-09T11:19:36;98163.84;;;24.70;42.18
13312;BME280;34033;48.672;9.376;2022-09-09T11:24:53;98158.25;;;24.61;41.56
13312;BME280;34033;48.672;9.376;2022-09-09T11:32:49;98179.31;;;24.10;40.76
13312;BME280;34033;48.672;9.376;2022-09-09T11:35:41;98216.59;;;23.26;42.01
13312;BME280;34033;48.672;9.376;2022-09-09T11:38:26;98208.94;;;22.91;43.64
13312;BME280;34033;48.672;9.376;2022-09-09T11:40:59;98215.50;;;22.36;46.72
13312;BME280;34033;48.672;9.376;2022-09-09T11:43:45;98217.88;;;22.11;48.58
13312;BME280;34033;48.672;9.376;2022-09-09T11:46:13;98232.75;;;21.56;51.02
13312;BME280;34033;48.672;9.376;2022-09-09T11:48:58;98221.97;;;21.11;51.53
13312;BME280;34033;48.672;9.376;2022-09-09T11:51:28;98227.53;;;20.62;57.61
13312;BME280;34033;48.672;9.376;2022-09-09T12:09:29;98227.03;;;21.47;55.81
13312;BME280;34033;48.672;9.376;2022-09-09T12:14:35;98227.72;;;21.60;53.79
13312;BME280;34033;48.672;9.376;2022-09-09T12:19:40;98235.81;;;21.80;51.48
13312;BME280;34033;48.672;9.376;2022-09-09T12:22:23;98227.34;;;22.17;50.62
13312;BME280;34033;48.672;9.376;2022-09-09T12:25:15;98230.03;;;22.38;47.84
13312;BME280;34033;48.672;9.376;2022-09-09T12:30:17;98220.38;;;22.45;46.39
13312;BME280;34033;48.672;9.376;2022-09-09T12:32:42;98215.00;;;22.56;45.68
13312;BME280;34033;48.672;9.376;2022-09-09T12:35:22;98205.47;;;22.68;45.51
13312;BME280;34033;48.672;9.376;2022-09-09T12:37:53;98203.72;;;22.89;43.47
13312;BME280;34033;48.672;9.376;2022-09-09T12:40:30;98210.78;;;23.12;46.18
13312;BME280;34033;48.672;9.376;2022-09-09T12:42:57;98201.16;;;23.42;45.05
13312;BME280;34033;48.672;9.376;2022-09-09T12:45:29;98189.50;;;23.64;44.09
13312;BME280;34033;48.672;9.376;2022-09-09T12:50:45;98177.72;;;24.48;41.90
13312;BME280;34033;48.672;9.376;2022-09-09T12:53:18;98187.41;;;24.65;41.79
13312;BME280;34033;48.672;9.376;2022-09-09T12:55:55;98183.31;;;24.96;40.76
13312;BME280;34033;48.672;9.376;2022-09-09T12:58:21;98181.69;;;24.65;38.60
13312;BME280;34033;48.672;9.376;2022-09-09T13:00:54;98189.78;;;24.52;40.04
13312;BME280;34033;48.672;9.376;2022-09-09T13:03:24;98190.09;;;24.69;40.00
13312;BME280;34033;48.672;9.376;2022-09-09T13:05:54;98185.06;;;24.78;40.01
13312;BME280;34033;48.672;9.376;2022-09-09T13:08:24;98182.09;;;24.73;39.63
13312;BME280;34033;48.672;9.376;2022-09-09T13:10:54;98179.94;;;24.53;39.98
13312;BME280;34033;48.672;9.376;2022-09-09T13:13:27;98177.94;;;24.59;41.38
13312;BME280;34033;48.672;9.376;2022-09-09T13:15:59;98166.72;;;24.85;39.83
13312;BME280;34033;48.672;9.376;2022-09-09T13:18:29;98181.09;;;24.61;38.57
13312;BME280;34033;48.672;9.376;2022-09-09T13:20:56;98188.13;;;24.22;39.59
13312;BME280;34033;48.672;9.376;2022-09-09T13:23:32;98181.69;;;23.88;41.15
13312;BME280;34033;48.672;9.376;2022-09-09T13:26:00;98174.19;;;23.52;41.89
13312;BME280;34033;48.672;9.376;2022-09-09T13:28:28;98170.72;;;23.48;41.81
13312;BME280;34033;48.672;9.376;2022-09-09T13:31:05;98167.72;;;23.43;42.69
13312;BME280;34033;48.672;9.376;2022-09-09T13:33:44;98164.75;;;23.61;42.04
13312;BME280;34033;48.672;9.376;2022-09-09T13:36:10;98172.06;;;23.62;41.74
13312;BME280;34033;48.672;9.376;2022-09-09T13:38:39;98157.78;;;23.86;40.61
13312;BME280;34033;48.672;9.376;2022-09-09T13:41:08;98157.56;;;24.13;40.45
13312;BME280;34033;48.672;9.376;2022-09-09T13:43:42;98151.25;;;24.09;38.78
13312;BME280;34033;48.672;9.376;2022-09-09T13:46:36;98150.53;;;24.23;39.69
13312;BME280;34033;48.672;9.376;2022-09-09T13:51:40;98168.66;;;24.20;40.41
13312;BME280;34033;48.672;9.376;2022-09-09T13:54:09;98159.63;;;24.13;40.72
13312;BME280;34033;48.672;9.376;2022-09-09T13:56:36;98157.56;;;24.13;41.00
13312;BME280;34033;48.672;9.376;2022-09-09T13:59:03;98152.69;;;24.28;40.96
13312;BME280;34033;48.672;9.376;2022-09-09T14:01:28;98158.25;;;24.61;41.15
13312;BME280;34033;48.672;9.376;2022-09-09T14:03:55;98159.13;;;24.67;40.44
13312;BME280;34033;48.672;9.376;2022-09-09T14:06:20;98149.47;;;24.79;39.98
13312;BME280;34033;48.672;9.376;2022-09-09T14:08:50;98151.94;;;25.01;39.97
13312;BME280;34033;48.672;9.376;2022-09-09T14:11:17;98141.25;;;25.16;39.89
13312;BME280;34033;48.672;9.376;2022-09-09T14:13:43;98145.72;;;25.52;39.43
13312;BME280;34033;48.672;9.376;2022-09-09T14:16:09;98146.31;;;25.42;38.41
13312;BME280;34033;48.672;9.376;2022-09-09T14:18:35;98135.97;;;24.95;38.54
13312;BME280;34033;48.672;9.376;2022-09-09T14:21:01;98143.22;;;25.25;38.13
13312;BME280;34033;48.672;9.376;2022-09-09T14:23:28;98133.09;;;25.44;38.06
13312;BME280;34033;48.672;9.376;2022-09-09T14:25:55;98132.88;;;25.83;37.60
13312;BME280;34033;48.672;9.376;2022-09-09T14:28:20;98132.16;;;26.28;37.46
13312;BME280;34033;48.672;9.376;2022-09-09T14:30:45;98130.56;;;26.27;37.13
13312;BME280;34033;48.672;9.376;2022-09-09T14:33:13;98149.38;;;26.13;36.62
13312;BME280;34033;48.672;9.376;2022-09-09T14:35:39;98130.97;;;26.20;36.48
13312;BME280;34033;48.672;9.376;2022-09-09T14:38:05;98133.06;;;26.40;36.28
13312;BME280;34033;48.672;9.376;2022-09-09T14:40:31;98133.59;;;26.70;35.80
13312;BME280;34033;48.672;9.376;2022-09-09T14:42:56;98130.25;;;26.45;34.53
13312;BME280;34033;48.672;9.376;2022-09-09T14:45:23;98141.09;;;26.62;33.86
13312;BME280;34033;48.672;9.376;2022-09-09T14:47:50;98146.91;;;26.01;34.52
13312;BME280;34033;48.672;9.376;2022-09-09T14:50:16;98134.66;;;25.60;35.58
13312;BME280;34033;48.672;9.376;2022-09-09T14:52:41;98132.66;;;25.66;35.92
13312;BME280;34033;48.672;9.376;2022-09-09T14:55:07;98149.88;;;25.37;36.28
13312;BME280;34033;48.672;9.376;2022-09-09T14:57:32;98142.41;;;24.89;36.82
13312;BME280;34033;48.672;9.376;2022-09-09T14:59:58;98140.69;;;24.53;38.02
13312;BME280;34033;48.672;9.376;2022-09-09T15:02:23;98152.31;;;24.65;37.75
13312;BME280;34033;48.672;9.376;2022-09-09T15:04:48;98129.28;;;25.32;36.46
13312;BME280;34033;48.672;9.376;2022-09-09T15:07:17;98142.25;;;25.63;35.69
13312;BME280;34033;48.672;9.376;2022-09-09T15:09:44;98130.13;;;26.14;35.88
13312;BME280;34033;48.672;9.376;2022-09-09T15:12:10;98129.78;;;26.78;35.13
13312;BME280;34033;48.672;9.376;2022-09-09T15:14:35;98123.22;;;27.40;33.82
13312;BME280;34033;48.672;9.376;2022-09-09T15:17:00;98139.66;;;26.77;34.32
13312;BME280;34033;48.672;9.376;2022-09-09T15:19:26;98137.97;;;26.91;35.50
13312;BME280;34033;48.672;9.376;2022-09-09T15:21:51;98136.84;;;27.46;34.44
13312;BME280;34033;48.672;9.376;2022-09-09T15:24:17;98129.28;;;27.96;32.45
13312;BME280;34033;48.672;9.376;2022-09-09T15:26:42;98130.28;;;27.08;32.79
13312;BME280;34033;48.672;9.376;2022-09-09T15:29:08;98126.56;;;25.99;33.92
13312;BME280;34033;48.672;9.376;2022-09-09T15:31:34;98127.06;;;25.22;34.83
13312;BME280;34033;48.672;9.376;2022-09-09T15:34:04;98126.69;;;25.00;36.07
13312;BME280;34033;48.672;9.376;2022-09-09T15:36:32;98119.00;;;24.76;37.21
13312;BME280;34033;48.672;9.376;2022-09-09T15:38:59;98117.56;;;24.51;36.61